Mt Bachelor previous 24hr weather report
        updated 11/27/2014 3:08
Year Month Date Time Base Pmx Smt Pmx Smt Pmx Pmx Pmx Smt Smt Smt Srx Srx Srx
Temp Temp Temp RH RH wind wind wind wind wind wind wind wind wind
6300' 7800' 9000' 7800' 9000' avg max dir avg max dir avg max dir
1 2014 11 27 11/27/2014 300 40.5 37.2 29.5 74 78 25 38 182 2 12 178
2 2014 11 27 11/27/2014 200 40.9 37.3 29.1 56 90 23 38 163 3 31 145
3 2014 11 27 11/27/2014 100 41 35.9 30 73 77 25 41 194 6 38 153
4 2014 11 26 11/26/2014 2400 41.6 37.1 30.5 61 74 21 46 164 11 49 177
5 2014 11 26 11/26/2014 2300 42 37 30.7 61 77 15 24 168 4 19 201
6 2014 11 26 11/26/2014 2200 41.1 38.5 31.4 57 79 24 35 201 6 7 -999
7 2014 11 26 11/26/2014 2100 40.8 38.6 31 57 81 22 32 205 1 10 269
8 2014 11 26 11/26/2014 2000 39.3 38.2 31.2 61 82 15 28 185 1 6 123
9 2014 11 26 11/26/2014 1900 40.3 39.2 31.4 61 82 17 26 200 1 8 142
10 2014 11 26 11/26/2014 1800 39.3 39.5 31.5 60 83 17 28 177 11 42 173
11 2014 11 26 11/26/2014 1700 39.7 38.5 31.7 63 83 18 24 178 10 36 183
12 2014 11 26 11/26/2014 1600 43 38.3 31.8 65 85 16 27 173 7 32 224
13 2014 11 26 11/26/2014 1500 44.4 39.6 31.6 63 85 21 33 186 11 56 199
14 2014 11 26 11/26/2014 1400 44.6 40.1 31.1 62 86 22 35 173 11 52 185
15 2014 11 26 11/26/2014 1300 43.8 39.3 30.9 61 86 19 30 170 8 43 169
16 2014 11 26 11/26/2014 1200 43.3 40.1 29.7 55 88 22 33 178 2 18 173
17 2014 11 26 11/26/2014 1100 41.4 40.3 28.9 45 89 23 34 167 3 23 160
18 2014 11 26 11/26/2014 1000 39.8 39.6 29.3 38 92 20 30 157 9 47 217
19 2014 11 26 11/26/2014 900 37.1 38.3 28.9 54 96 24 35 160 6 35 200
20 2014 11 26 11/26/2014 800 34.7 36.5 29.3 67 97 21 29 182 9 31 141
21 2014 11 26 11/26/2014 700 34.7 35.9 29.1 77 97 20 29 193 9 34 198
22 2014 11 26 11/26/2014 600 34.9 35.2 28.6 80 96 20 28 192 12 43 152
23 2014 11 26 11/26/2014 500 36.6 34.7 27.8 79 96 23 32 200 17 48 193
24 2014 11 26 11/26/2014 400 36.8 32.8 27.6 97 96 22 28 198 17 51 190
1 2014 11 26 11/26/2014 300 37.8 32.8 28.2 98 97 20 28 202 17 53 229